Time;durP1;ratioP1;P1;durP2;ratioP2;P2;SDS_P1;SDS_P2;PMS_P1;PMS_P2;Temp;Humidity;BMP_temperature;BMP_pressure;BME280_temperature;BME280_humidity;BME280_pressure;Samples;Min_cycle;Max_cycle;Signal;HPM_P1;HPM_P2
2024/03/27 00:01:40;;;;;;;12.20;6.90;;;;;;;3.83;56.14;98493.08;104793;1267;61198;-28
2024/03/27 00:04:09;;;;;;;18.80;8.60;;;;;;;3.58;56.45;98495.10;104723;1267;61165;-28
2024/03/27 00:06:36;;;;;;;19.00;7.80;;;;;;;3.44;56.95;98498.02;104751;1272;73017;-28
2024/03/27 00:09:04;;;;;;;13.30;6.40;;;;;;;4.23;56.21;98505.86;104758;1271;74492;-28
2024/03/27 00:19:15;;;;;;;8.80;4.40;;;;;;;5.01;54.49;98513.85;102608;1295;600046;-29
2024/03/27 00:29:24;;;;;;;9.00;3.90;;;;;;;4.43;55.09;98508.91;102557;1291;600347;-26
2024/03/27 00:31:52;;;;;;;8.40;4.50;;;;;;;4.28;55.41;98510.37;104818;1267;61174;-27
2024/03/27 00:34:20;;;;;;;7.20;4.30;;;;;;;4.38;55.17;98511.80;105624;1256;61042;-29
2024/03/27 00:36:47;;;;;;;11.50;5.10;;;;;;;4.34;54.88;98503.44;105561;1257;72834;-29
2024/03/27 00:46:59;;;;;;;10.60;6.20;;;;;;;3.82;55.99;98506.19;102586;1293;600157;-26
2024/03/27 00:57:05;;;;;;;14.90;7.20;;;;;;;3.33;58.01;98504.87;102607;1293;600319;-28
2024/03/27 01:07:16;;;;;;;9.20;5.50;;;;;;;5.21;55.50;98508.07;102596;1292;600163;-26
2024/03/27 01:17:31;;;;;;;35.20;15.90;;;;;;;4.61;55.36;98505.98;102642;1290;599412;-26
2024/03/27 01:19:59;;;;;;;28.20;13.20;;;;;;;4.32;55.65;98510.81;105060;1269;61111;-26
2024/03/27 01:22:27;;;;;;;23.50;11.00;;;;;;;4.06;55.99;98510.52;104969;1270;61161;-28
2024/03/27 01:24:54;;;;;;;22.50;9.60;;;;;;;3.84;56.32;98512.90;104878;1271;73492;-28
2024/03/27 01:35:08;;;;;;;31.50;14.70;;;;;;;3.27;57.50;98513.46;103002;1290;600304;-26
2024/03/27 01:37:36;;;;;;;55.10;25.10;;;;;;;3.13;58.05;98511.71;104861;1264;61104;-27
2024/03/27 01:40:04;;;;;;;51.00;21.40;;;;;;;3.03;58.24;98509.55;105153;1269;61162;-28
2024/03/27 01:42:35;;;;;;;28.90;13.90;;;;;;;2.91;58.59;98508.48;104885;1270;71800;-28
2024/03/27 01:45:03;;;;;;;26.90;12.60;;;;;;;2.83;59.13;98511.38;104937;1270;74339;-28
2024/03/27 01:47:34;;;;;;;12.60;6.40;;;;;;;2.72;58.91;98512.04;104216;1270;4726221;-28
2024/03/27 01:50:04;;;;;;;11.40;5.10;;;;;;;3.24;58.96;98511.89;104658;1264;61196;-28
2024/03/27 01:52:32;;;;;;;6.90;4.10;;;;;;;4.16;57.54;98520.55;104860;1263;61171;-28
2024/03/27 02:02:41;;;;;;;7.70;4.10;;;;;;;4.04;56.70;98516.46;102575;1292;599402;-27
2024/03/27 02:12:46;;;;;;;4.70;3.00;;;;;;;3.47;58.02;98508.66;102572;1292;600157;-26
2024/03/27 02:23:02;;;;;;;4.10;2.30;;;;;;;3.12;59.06;98504.23;102607;1293;600278;-26
2024/03/27 02:25:38;;;;;;;6.90;4.10;;;;;;;3.03;59.59;98495.16;104818;1269;61267;-28
2024/03/27 02:28:05;;;;;;;9.20;5.00;;;;;;;2.99;59.65;98496.38;105551;1262;61414;-29
2024/03/27 02:30:33;;;;;;;6.80;3.10;;;;;;;2.93;59.97;98501.04;105586;1254;73098;-29
2024/03/27 02:33:00;;;;;;;9.60;4.10;;;;;;;3.60;59.54;98498.60;105751;1258;73210;-30
2024/03/27 02:35:28;;;;;;;10.70;4.40;;;;;;;4.42;57.34;98499.80;102227;1262;4582883;-29
2024/03/27 02:37:56;;;;;;;9.40;4.30;;;;;;;4.62;56.43;98505.25;105717;1251;61186;-29
2024/03/27 02:40:23;;;;;;;6.90;4.40;;;;;;;4.56;56.20;98506.86;105925;1254;61076;-29
2024/03/27 02:42:51;;;;;;;11.80;6.60;;;;;;;4.38;56.40;98505.80;105915;1256;72954;-29
2024/03/27 02:45:19;;;;;;;12.60;7.10;;;;;;;4.17;56.40;98502.83;105867;1253;73698;-29
2024/03/27 02:47:46;;;;;;;13.70;6.80;;;;;;;3.96;56.80;98497.06;105695;1254;72313;-28
2024/03/27 02:50:14;;;;;;;11.50;6.40;;;;;;;3.79;57.31;98492.27;105883;1256;61119;-29
2024/03/27 02:52:42;;;;;;;16.10;8.40;;;;;;;3.65;57.58;98491.41;105723;1258;61812;-29
2024/03/27 03:02:54;;;;;;;18.50;9.60;;;;;;;3.22;59.18;98485.27;103068;1288;600937;-28
2024/03/27 03:05:21;;;;;;;17.00;7.80;;;;;;;3.18;59.14;98484.63;104830;1266;61228;-28
2024/03/27 03:07:49;;;;;;;8.80;5.20;;;;;;;3.09;59.42;98480.20;104807;1266;61133;-28
2024/03/27 03:10:17;;;;;;;15.40;7.60;;;;;;;3.66;59.30;98484.13;104884;1265;71896;-27
2024/03/27 03:12:44;;;;;;;10.10;5.80;;;;;;;4.43;57.33;98481.17;104865;1271;73231;-27
2024/03/27 03:22:55;;;;;;;11.70;5.70;;;;;;;4.20;57.03;98474.11;102579;1293;600097;-26
2024/03/27 03:25:23;;;;;;;14.50;7.20;;;;;;;3.99;57.50;98477.48;104797;1267;61156;-28
2024/03/27 03:27:50;;;;;;;11.40;5.70;;;;;;;3.82;57.89;98477.34;104797;1270;61174;-29
2024/03/27 03:30:18;;;;;;;11.60;6.60;;;;;;;3.68;58.09;98477.52;104827;1267;71734;-29
2024/03/27 03:40:47;;;;;;;9.70;6.30;;;;;;;3.22;59.38;98483.72;102698;1295;599446;-28
2024/03/27 03:43:14;;;;;;;5.10;2.90;;;;;;;3.06;60.00;98481.92;104886;1265;61120;-29
2024/03/27 03:53:24;;;;;;;5.30;3.30;;;;;;;4.47;57.13;98478.88;102616;1291;599853;-26
2024/03/27 03:55:52;;;;;;;6.70;4.50;;;;;;;4.31;57.33;98474.59;105161;1264;61177;-28
2024/03/27 03:58:19;;;;;;;7.30;4.60;;;;;;;4.14;57.08;98471.57;105169;1263;61118;-29
2024/03/27 04:00:50;;;;;;;12.10;6.50;;;;;;;3.95;57.49;98470.84;105111;1266;70751;-29
2024/03/27 04:09:51;;;;;;;16.40;8.00;;;;;;;3.57;58.85;98470.26;102572;1294;600433;-28
2024/03/27 04:12:19;;;;;;;12.30;5.80;;;;;;;3.54;59.23;98474.58;104933;1266;61114;-29
2024/03/27 04:22:31;;;;;;;7.60;4.60;;;;;;;5.03;57.00;98473.10;102616;1293;600376;-28
2024/03/27 04:24:59;;;;;;;9.60;5.10;;;;;;;5.28;56.07;98475.10;104870;1265;61701;-28
2024/03/27 04:27:26;;;;;;;7.80;5.30;;;;;;;5.25;55.74;98468.56;104854;1267;61097;-29
2024/03/27 04:37:32;;;;;;;5.80;3.90;;;;;;;5.21;56.26;98473.66;102597;1292;599940;-26
2024/03/27 04:39:59;;;;;;;6.90;3.90;;;;;;;5.27;56.14;98469.48;104980;1269;61007;-26
2024/03/27 04:50:07;;;;;;;4.80;3.40;;;;;;;5.49;56.11;98470.70;102881;1291;600153;-27
2024/03/27 04:52:35;;;;;;;4.90;3.40;;;;;;;5.55;55.77;98466.84;104725;1266;61125;-28
2024/03/27 04:55:03;;;;;;;6.60;4.00;;;;;;;5.70;55.53;98464.75;104830;1266;61091;-28
2024/03/27 04:57:31;;;;;;;7.50;4.10;;;;;;;5.81;55.39;98465.70;104790;1273;73014;-28
2024/03/27 04:59:59;;;;;;;8.20;4.20;;;;;;;5.93;55.30;98465.25;105296;1259;73086;-28
2024/03/27 05:02:27;;;;;;;7.60;3.70;;;;;;;6.03;55.01;98467.42;105643;1256;72646;-29
2024/03/27 05:04:54;;;;;;;5.60;3.60;;;;;;;6.06;54.83;98465.86;102309;1258;61149;-28
2024/03/27 05:07:22;;;;;;;5.80;2.50;;;;;;;6.39;55.05;98472.77;105670;1258;73046;-29
2024/03/27 05:09:49;;;;;;;6.70;2.90;;;;;;;7.45;52.82;98477.97;105635;1253;72107;-28
2024/03/27 05:12:17;;;;;;;6.10;2.90;;;;;;;7.97;51.39;98476.06;105712;1254;72666;-28
2024/03/27 05:14:45;;;;;;;5.60;3.00;;;;;;;8.14;50.85;98473.46;105749;1252;61148;-28
2024/03/27 05:17:12;;;;;;;8.50;4.10;;;;;;;8.10;50.64;98473.48;105778;1257;61087;-28
2024/03/27 05:19:40;;;;;;;6.50;4.10;;;;;;;8.05;50.69;98478.18;105742;1258;72578;-32
2024/03/27 05:22:15;;;;;;;7.60;4.50;;;;;;;8.01;50.69;98475.22;105721;1258;74036;-28
2024/03/27 05:24:43;;;;;;;5.60;2.80;;;;;;;8.00;50.84;98478.19;105599;1253;72691;-28
2024/03/27 05:27:11;;;;;;;6.20;3.00;;;;;;;7.98;50.70;98476.46;105526;1253;61091;-28
2024/03/27 05:29:38;;;;;;;5.00;3.10;;;;;;;8.10;50.62;98479.68;105701;1253;61150;-28
2024/03/27 05:32:06;;;;;;;6.70;3.40;;;;;;;8.02;51.16;98479.94;105740;1255;73822;-28
2024/03/27 05:34:33;;;;;;;4.60;2.80;;;;;;;8.02;51.31;98479.59;105730;1258;73214;-28
2024/03/27 05:44:45;;;;;;;4.10;2.90;;;;;;;7.97;51.90;98482.92;102540;1293;599557;-26
2024/03/27 05:47:14;;;;;;;5.40;2.80;;;;;;;8.13;51.91;98488.80;104801;1264;61832;-25
2024/03/27 05:49:41;;;;;;;3.80;2.50;;;;;;;8.10;51.46;98480.71;104892;1267;61174;-25
2024/03/27 05:52:09;;;;;;;5.60;2.70;;;;;;;8.05;51.11;98484.92;104841;1264;71831;-25
2024/03/27 05:54:36;;;;;;;5.20;2.10;;;;;;;8.12;50.90;98484.86;104804;1264;74327;-27
2024/03/27 05:57:04;;;;;;;7.40;3.20;;;;;;;8.26;50.76;98486.16;104764;1265;72662;-27
2024/03/27 05:59:32;;;;;;;5.70;1.90;;;;;;;8.39;51.10;98487.05;101433;1263;4644303;-27
2024/03/27 06:01:59;;;;;;;3.60;2.30;;;;;;;8.39;51.06;98485.15;105731;1257;61143;-27
2024/03/27 06:04:27;;;;;;;4.50;2.90;;;;;;;8.43;50.45;98488.25;105731;1257;72948;-27
2024/03/27 06:06:56;;;;;;;3.30;1.60;;;;;;;8.59;49.98;98492.56;105880;1256;75618;-27
2024/03/27 06:17:06;;;;;;;2.50;2.00;;;;;;;9.00;49.20;98498.88;102591;1294;599973;-25
2024/03/27 06:19:34;;;;;;;2.30;1.80;;;;;;;9.01;48.37;98489.08;108609;1266;59229;-26
2024/03/27 06:22:01;;;;;;;3.60;1.90;;;;;;;9.08;48.29;98494.58;108643;1265;58842;-26
2024/03/27 06:24:29;;;;;;;2.60;1.80;;;;;;;9.27;48.16;98495.27;108603;1266;73019;-26
2024/03/27 06:26:56;;;;;;;2.50;1.70;;;;;;;9.52;47.21;98493.95;108607;1266;74346;-26
2024/03/27 06:29:24;;;;;;;3.70;2.30;;;;;;;9.54;46.70;98488.45;108649;1265;71373;-26
2024/03/27 06:31:51;;;;;;;5.50;2.30;;;;;;;9.78;46.37;98488.45;105279;1262;4493804;-26
2024/03/27 06:34:19;;;;;;;2.20;1.50;;;;;;;9.84;46.33;98489.30;108712;1262;58752;-26
2024/03/27 06:36:46;;;;;;;2.00;1.50;;;;;;;9.81;46.48;98486.31;108706;1262;73075;-27
2024/03/27 06:39:14;;;;;;;2.70;1.90;;;;;;;9.88;45.19;98480.85;108731;1262;74325;-26
2024/03/27 06:41:42;;;;;;;2.90;1.60;;;;;;;10.03;45.62;98486.09;108739;1263;72675;-26
2024/03/27 06:44:10;;;;;;;2.40;1.60;;;;;;;10.21;44.86;98483.67;108732;1262;59298;-26
2024/03/27 06:46:37;;;;;;;3.00;1.80;;;;;;;10.28;45.11;98478.05;108708;1262;58868;-26
2024/03/27 06:49:17;;;;;;;2.00;1.50;;;;;;;10.38;44.52;98476.84;108696;1262;73825;-26
2024/03/27 06:51:46;;;;;;;1.60;1.50;;;;;;;10.40;44.50;98478.86;108793;1262;74323;-26
2024/03/27 06:54:13;;;;;;;2.70;1.70;;;;;;;10.36;44.16;98467.79;108649;1262;72713;-26
2024/03/27 06:56:41;;;;;;;3.20;1.70;;;;;;;10.39;43.95;98463.55;108683;1262;60135;-26
2024/03/27 06:59:08;;;;;;;2.40;1.80;;;;;;;10.48;44.06;98464.47;108706;1264;58743;-26
2024/03/27 07:01:36;;;;;;;2.40;1.90;;;;;;;10.52;43.76;98461.19;108705;1264;73886;-26
2024/03/27 07:04:05;;;;;;;3.00;1.70;;;;;;;10.70;43.71;98463.55;108597;1264;73217;-26
2024/03/27 07:06:33;;;;;;;3.30;1.50;;;;;;;10.84;42.79;98465.60;108621;1263;74728;-26
2024/03/27 07:09:00;;;;;;;2.30;1.50;;;;;;;10.95;42.74;98459.38;108716;1264;59480;-26
2024/03/27 07:11:28;;;;;;;2.70;1.70;;;;;;;11.09;43.04;98460.66;108731;1263;58793;-26
2024/03/27 07:13:55;;;;;;;4.20;1.50;;;;;;;11.30;42.36;98462.42;108660;1264;72878;-26
2024/03/27 07:16:24;;;;;;;1.80;1.30;;;;;;;11.26;41.57;98452.73;108668;1264;76751;-26
2024/03/27 07:18:51;;;;;;;1.70;1.30;;;;;;;11.23;41.33;98451.75;108660;1264;74948;-26
2024/03/27 07:21:19;;;;;;;2.10;1.40;;;;;;;11.41;41.77;98462.92;108662;1265;59194;-26
2024/03/27 07:23:46;;;;;;;2.40;1.50;;;;;;;11.38;41.73;98451.45;108638;1264;58784;-26
2024/03/27 07:26:14;;;;;;;2.80;1.40;;;;;;;11.35;41.22;98457.08;108692;1263;73722;-26
2024/03/27 07:28:41;;;;;;;1.70;1.60;;;;;;;11.47;40.91;98459.07;108655;1265;74373;-26
2024/03/27 07:31:09;;;;;;;2.70;1.50;;;;;;;11.43;40.42;98453.01;108591;1264;74826;-26
2024/03/27 07:33:37;;;;;;;3.60;1.80;;;;;;;11.54;40.32;98453.60;108609;1265;62129;-26
2024/03/27 07:36:04;;;;;;;4.00;1.20;;;;;;;11.64;40.12;98445.30;108656;1264;60395;-26
2024/03/27 07:38:32;;;;;;;2.10;1.50;;;;;;;11.68;40.24;98449.83;108595;1264;76062;-26
2024/03/27 07:41:00;;;;;;;2.20;1.40;;;;;;;11.88;40.39;98449.12;108719;1265;76718;-26
2024/03/27 07:43:27;;;;;;;3.40;1.30;;;;;;;11.98;39.86;98442.75;108689;1265;76292;-27
2024/03/27 07:45:55;;;;;;;2.40;1.70;;;;;;;12.31;39.72;98441.64;108647;1264;63532;-26
2024/03/27 07:48:23;;;;;;;2.50;1.40;;;;;;;12.39;38.84;98436.09;108707;1264;59541;-26
2024/03/27 07:50:51;;;;;;;1.50;1.30;;;;;;;12.12;38.88;98435.04;108603;1264;76213;-26
2024/03/27 07:53:18;;;;;;;1.80;1.30;;;;;;;12.20;38.76;98432.83;108595;1265;75890;-26
2024/03/27 07:55:56;;;;;;;2.10;1.20;;;;;;;12.27;38.26;98433.88;108689;1265;72240;-26
2024/03/27 07:58:23;;;;;;;1.50;1.20;;;;;;;12.49;38.28;98431.89;108530;1265;60885;-26
2024/03/27 08:00:52;;;;;;;2.20;1.30;;;;;;;12.75;38.49;98431.49;108586;1267;61481;-26
2024/03/27 08:03:19;;;;;;;2.90;1.30;;;;;;;12.79;38.37;98420.91;108629;1265;73979;-26
2024/03/27 08:05:47;;;;;;;3.80;1.10;;;;;;;13.02;38.04;98427.40;108590;1265;74819;-26
2024/03/27 08:08:14;;;;;;;2.10;1.20;;;;;;;13.53;38.22;98429.17;108583;1265;74652;-26
2024/03/27 08:10:42;;;;;;;2.00;1.70;;;;;;;13.74;36.68;98419.67;108894;1259;60057;-26
2024/03/27 08:13:09;;;;;;;2.60;1.60;;;;;;;13.64;36.89;98410.80;108949;1259;61316;-26
2024/03/27 08:15:38;;;;;;;2.80;1.80;;;;;;;13.67;36.14;98402.23;108941;1259;74784;-26
2024/03/27 08:18:06;;;;;;;5.40;2.80;;;;;;;13.43;36.70;98401.59;108923;1259;76915;-26
2024/03/27 08:20:34;;;;;;;3.00;1.50;;;;;;;13.32;36.94;98412.35;108880;1259;73650;-26
2024/03/27 08:23:01;;;;;;;4.00;2.70;;;;;;;13.32;36.97;98412.65;108906;1259;60351;-27
2024/03/27 08:25:32;;;;;;;3.80;1.50;;;;;;;13.72;36.13;98403.36;108953;1259;61067;-27
2024/03/27 08:28:01;;;;;;;2.10;1.40;;;;;;;13.76;36.68;98389.17;108979;1259;76212;-26
2024/03/27 08:30:28;;;;;;;3.80;1.40;;;;;;;13.68;37.03;98397.79;108945;1258;76493;-26
2024/03/27 08:32:56;;;;;;;2.80;1.50;;;;;;;13.80;36.80;98408.20;108879;1260;75007;-26
2024/03/27 08:35:24;;;;;;;2.40;1.30;;;;;;;13.78;36.55;98404.64;109037;1258;59107;-26
2024/03/27 08:37:51;;;;;;;2.90;1.40;;;;;;;13.77;36.88;98401.77;109016;1258;63550;-27
2024/03/27 08:40:33;;;;;;;4.20;1.70;;;;;;;13.92;36.37;98406.45;109019;1258;75904;-26
2024/03/27 08:43:00;;;;;;;2.90;2.10;;;;;;;13.99;35.89;98397.73;108998;1258;73995;-26
2024/03/27 08:45:28;;;;;;;2.50;1.70;;;;;;;13.88;36.54;98399.77;108925;1257;76126;-26
2024/03/27 08:47:56;;;;;;;4.40;2.20;;;;;;;14.08;36.04;98393.94;109010;1258;60757;-26
2024/03/27 08:50:27;;;;;;;3.40;1.80;;;;;;;14.16;35.75;98389.44;108959;1259;60178;-27
2024/03/27 08:52:54;;;;;;;2.30;1.40;;;;;;;14.09;35.90;98383.60;109016;1258;74694;-26
2024/03/27 08:55:22;;;;;;;2.70;1.70;;;;;;;13.84;36.27;98385.38;108981;1259;76786;-26
2024/03/27 08:57:49;;;;;;;2.40;1.80;;;;;;;13.86;36.28;98390.73;108995;1259;74575;-26
2024/03/27 09:00:17;;;;;;;4.90;2.70;;;;;;;13.73;36.44;98393.85;109013;1260;59962;-27
2024/03/27 09:02:48;;;;;;;1.50;1.30;;;;;;;13.83;36.70;98393.65;108980;1259;62142;-27
2024/03/27 09:05:17;;;;;;;2.40;1.40;;;;;;;13.77;36.60;98387.60;108918;1258;75074;-27
2024/03/27 09:07:44;;;;;;;2.50;1.30;;;;;;;13.83;36.86;98400.27;109036;1258;75074;-27
2024/03/27 09:10:12;;;;;;;2.70;1.20;;;;;;;13.89;36.69;98398.41;108983;1259;74633;-26
2024/03/27 09:12:40;;;;;;;2.00;1.60;;;;;;;13.91;36.62;98393.30;108961;1260;60896;-26
2024/03/27 09:15:07;;;;;;;2.20;1.40;;;;;;;14.14;36.53;98384.08;108955;1259;59704;-27
2024/03/27 09:17:35;;;;;;;2.10;1.70;;;;;;;14.35;36.08;98381.55;108983;1258;76124;-26
2024/03/27 09:20:03;;;;;;;2.30;1.80;;;;;;;14.50;35.38;98377.53;108970;1260;74467;-26
2024/03/27 09:22:34;;;;;;;3.50;1.40;;;;;;;14.64;35.61;98383.02;108925;1258;74786;-26
2024/03/27 09:25:04;;;;;;;2.20;1.50;;;;;;;14.90;35.10;98384.17;108945;1258;62137;-26
2024/03/27 09:27:34;;;;;;;2.60;1.70;;;;;;;14.94;34.79;98377.11;109004;1258;60162;-26
2024/03/27 09:30:02;;;;;;;2.60;1.50;;;;;;;15.04;34.83;98367.42;108964;1259;76378;-26
2024/03/27 09:32:32;;;;;;;2.70;1.80;;;;;;;15.09;34.82;98364.09;108983;1260;75599;-26
2024/03/27 09:34:59;;;;;;;3.60;2.10;;;;;;;15.22;34.65;98371.90;108928;1259;74605;-26
2024/03/27 09:37:27;;;;;;;3.40;1.50;;;;;;;15.32;35.16;98369.98;108980;1260;60691;-26
2024/03/27 09:39:54;;;;;;;2.40;1.40;;;;;;;15.43;34.70;98360.83;109008;1259;61274;-26
2024/03/27 09:42:22;;;;;;;1.50;1.40;;;;;;;15.58;34.01;98357.03;108958;1260;75750;-27
2024/03/27 09:44:49;;;;;;;1.60;1.40;;;;;;;15.52;34.22;98349.40;108995;1258;75195;-26
2024/03/27 09:47:17;;;;;;;4.40;1.10;;;;;;;15.50;34.07;98346.63;108983;1258;73514;-26
2024/03/27 09:49:44;;;;;;;1.70;1.10;;;;;;;15.83;34.89;98352.86;108904;1258;61380;-26
2024/03/27 09:52:12;;;;;;;5.80;1.70;;;;;;;16.16;34.48;98352.63;108976;1260;59529;-26
2024/03/27 09:54:39;;;;;;;2.80;1.60;;;;;;;16.29;33.37;98354.59;108975;1259;75730;-26
2024/03/27 09:57:10;;;;;;;2.50;1.50;;;;;;;16.14;33.04;98350.71;108943;1258;76314;-26
2024/03/27 09:59:41;;;;;;;3.50;1.60;;;;;;;16.03;32.92;98347.66;108896;1258;73452;-26
2024/03/27 10:02:09;;;;;;;3.10;1.80;;;;;;;15.90;33.09;98333.13;108956;1258;63522;-26
2024/03/27 10:04:37;;;;;;;4.60;1.60;;;;;;;16.10;32.88;98336.54;109041;1260;61181;-26
2024/03/27 10:07:04;;;;;;;2.70;1.40;;;;;;;16.11;32.45;98330.06;108944;1259;76368;-26
2024/03/27 10:09:32;;;;;;;4.70;1.50;;;;;;;15.92;32.60;98321.73;108979;1259;75831;-26
2024/03/27 10:11:59;;;;;;;3.10;1.80;;;;;;;16.11;33.06;98325.02;108974;1260;73146;-26
2024/03/27 10:14:27;;;;;;;3.50;2.00;;;;;;;16.21;33.08;98322.25;108977;1258;61984;-26
2024/03/27 10:16:54;;;;;;;1.90;1.50;;;;;;;16.55;33.20;98322.33;108955;1259;60991;-26
2024/03/27 10:19:22;;;;;;;2.70;1.30;;;;;;;16.62;32.53;98316.27;108939;1260;74646;-26
2024/03/27 10:21:49;;;;;;;3.70;1.80;;;;;;;16.74;32.42;98312.77;109057;1260;75149;-26
2024/03/27 10:24:17;;;;;;;3.00;1.90;;;;;;;16.93;32.15;98307.52;108987;1260;73744;-26
2024/03/27 10:26:48;;;;;;;2.40;1.60;;;;;;;16.79;31.93;98300.98;108945;1260;61095;-26
2024/03/27 10:29:15;;;;;;;4.50;1.30;;;;;;;16.71;32.66;98303.09;108887;1260;62415;-26
2024/03/27 10:31:43;;;;;;;5.60;2.00;;;;;;;16.60;32.48;98305.45;108983;1259;75140;-26
2024/03/27 10:34:11;;;;;;;2.40;1.60;;;;;;;16.55;32.32;98299.60;108996;1259;76406;-26
2024/03/27 10:36:39;;;;;;;3.40;1.80;;;;;;;16.69;33.03;98297.27;108983;1258;74767;-26
2024/03/27 10:39:10;;;;;;;1.70;1.50;;;;;;;17.18;32.31;98289.69;108837;1260;62328;-26
2024/03/27 10:41:40;;;;;;;1.90;1.60;;;;;;;16.91;31.67;98270.57;108787;1259;60459;-26
2024/03/27 10:44:08;;;;;;;3.50;1.80;;;;;;;17.00;31.39;98272.17;108895;1259;76656;-26
2024/03/27 10:46:35;;;;;;;3.70;1.70;;;;;;;16.98;31.36;98280.71;108852;1259;74455;-26
2024/03/27 10:49:03;;;;;;;1.80;1.50;;;;;;;17.15;32.08;98268.13;108941;1260;73816;-26
2024/03/27 10:51:30;;;;;;;3.40;2.00;;;;;;;17.39;31.74;98278.20;108860;1266;62334;-26
2024/03/27 10:53:59;;;;;;;1.40;1.20;;;;;;;17.58;31.31;98266.82;108901;1259;61466;-26
2024/03/27 10:56:26;;;;;;;2.10;1.40;;;;;;;17.25;30.71;98242.60;108952;1259;78151;-26
2024/03/27 10:58:54;;;;;;;2.70;1.40;;;;;;;16.98;30.87;98250.02;108953;1260;76296;-26
2024/03/27 11:01:22;;;;;;;4.00;1.50;;;;;;;16.77;30.56;98251.65;108880;1260;74172;-27
2024/03/27 11:03:51;;;;;;;3.50;2.30;;;;;;;16.70;30.50;98251.00;108930;1263;62400;-26
2024/03/27 11:06:19;;;;;;;3.40;2.20;;;;;;;16.92;30.68;98256.59;108963;1261;62259;-27
2024/03/27 11:08:47;;;;;;;2.70;1.40;;;;;;;17.27;30.81;98249.86;108971;1260;76935;-26
2024/03/27 11:13:35;;;;;;;2.10;1.60;;;;;;;16.99;31.67;98241.61;102518;1293;601170;-25
2024/03/27 11:16:13;;;;;;;2.20;1.50;;;;;;;17.02;30.37;98233.39;104756;1266;64022;-26
2024/03/27 11:18:47;;;;;;;2.10;1.50;;;;;;;17.11;30.95;98231.76;104845;1272;61226;-27
2024/03/27 11:21:15;;;;;;;2.90;1.70;;;;;;;17.07;31.04;98225.92;104803;1271;75664;-27
2024/03/27 11:23:43;;;;;;;2.80;1.30;;;;;;;16.70;30.77;98218.40;105232;1267;77168;-27
2024/03/27 11:26:11;;;;;;;2.40;1.80;;;;;;;16.79;31.29;98227.52;101928;1268;4656079;-27
2024/03/27 11:28:39;;;;;;;1.70;1.40;;;;;;;17.07;31.59;98230.38;105250;1260;63933;-27
2024/03/27 11:31:07;;;;;;;3.20;2.00;;;;;;;17.13;31.06;98218.77;105638;1256;61457;-27
2024/03/27 11:33:35;;;;;;;3.20;2.00;;;;;;;16.94;29.22;98207.54;105597;1262;75513;-27
2024/03/27 11:36:04;;;;;;;3.70;1.50;;;;;;;17.08;30.10;98220.02;105479;1256;77331;-27
2024/03/27 11:38:31;;;;;;;1.60;1.30;;;;;;;17.14;29.95;98209.64;105609;1261;75435;-27
2024/03/27 11:40:59;;;;;;;3.00;1.50;;;;;;;17.31;30.06;98218.62;105475;1259;62741;-27
2024/03/27 11:43:27;;;;;;;1.90;1.40;;;;;;;17.66;30.20;98213.80;105509;1256;61497;-27
2024/03/27 11:45:54;;;;;;;4.50;1.60;;;;;;;17.44;29.32;98200.54;105484;1256;76959;-27
2024/03/27 11:48:22;;;;;;;2.60;1.60;;;;;;;16.99;30.70;98196.26;105334;1256;77074;-27
2024/03/27 11:50:50;;;;;;;2.40;1.20;;;;;;;17.01;30.16;98192.66;105570;1256;73632;-26
2024/03/27 11:53:17;;;;;;;2.30;1.30;;;;;;;17.15;30.10;98203.17;105525;1256;62081;-26
2024/03/27 11:55:52;;;;;;;4.30;1.20;;;;;;;17.35;29.78;98193.83;105595;1255;61125;-26
2024/03/27 11:58:21;;;;;;;3.80;1.30;;;;;;;17.08;28.82;98195.17;105504;1261;76667;-26
2024/03/27 12:00:49;;;;;;;1.30;1.00;;;;;;;16.87;29.59;98198.67;105353;1262;76624;-26
2024/03/27 12:03:17;;;;;;;4.30;1.50;;;;;;;16.94;29.77;98194.70;105322;1263;75547;-25
2024/03/27 12:05:45;;;;;;;4.20;1.30;;;;;;;16.98;30.21;98191.39;105376;1256;61303;-25
2024/03/27 12:08:14;;;;;;;4.00;1.70;;;;;;;16.83;30.38;98183.38;105366;1255;61559;-26
2024/03/27 12:10:42;;;;;;;3.30;1.40;;;;;;;16.78;30.34;98196.79;105318;1257;75935;-26
2024/03/27 12:13:10;;;;;;;4.30;1.30;;;;;;;16.80;30.80;98192.00;105613;1262;75561;-26
2024/03/27 12:15:42;;;;;;;2.90;1.30;;;;;;;16.75;30.28;98188.79;105569;1256;73525;-26
2024/03/27 12:18:11;;;;;;;3.80;1.10;;;;;;;16.99;30.49;98179.02;105274;1259;63456;-26
2024/03/27 12:20:39;;;;;;;2.30;1.40;;;;;;;17.16;30.48;98181.09;105588;1256;61095;-26
2024/03/27 12:23:07;;;;;;;1.60;1.20;;;;;;;17.10;30.34;98173.70;105610;1256;76650;-26
2024/03/27 12:25:35;;;;;;;2.80;1.30;;;;;;;16.90;30.50;98172.77;105570;1262;75627;-26
2024/03/27 12:28:06;;;;;;;2.60;1.20;;;;;;;16.99;30.85;98169.35;105532;1261;74492;-26
2024/03/27 12:30:38;;;;;;;2.30;1.30;;;;;;;17.09;30.78;98182.12;105259;1259;62547;-26
2024/03/27 12:33:06;;;;;;;2.10;1.30;;;;;;;16.99;30.11;98172.87;105470;1257;61776;-27
2024/03/27 12:35:34;;;;;;;5.30;1.70;;;;;;;16.81;29.86;98167.27;105385;1263;77805;-26
2024/03/27 12:38:01;;;;;;;2.10;1.40;;;;;;;16.90;30.17;98180.14;105540;1262;76280;-26
2024/03/27 12:40:29;;;;;;;2.20;1.50;;;;;;;16.92;30.57;98159.04;105571;1257;76979;-26
2024/03/27 12:42:57;;;;;;;4.60;2.10;;;;;;;16.83;30.35;98166.27;105399;1256;62527;-26
2024/03/27 12:45:24;;;;;;;3.90;2.30;;;;;;;16.66;29.92;98151.46;105556;1260;62536;-26
2024/03/27 12:47:53;;;;;;;3.20;1.70;;;;;;;16.64;30.67;98152.41;105459;1257;76359;-26
2024/03/27 12:50:21;;;;;;;1.50;1.20;;;;;;;16.48;30.52;98154.34;105289;1265;77410;-26
2024/03/27 12:52:50;;;;;;;1.60;0.90;;;;;;;16.36;31.29;98155.59;105415;1260;75216;-27
2024/03/27 12:55:18;;;;;;;2.90;1.20;;;;;;;16.24;30.62;98156.27;105466;1260;63962;-27
2024/03/27 12:57:49;;;;;;;1.50;0.80;;;;;;;16.49;31.38;98163.45;105375;1265;62220;-27
2024/03/27 13:00:18;;;;;;;2.00;1.00;;;;;;;16.73;31.25;98157.05;105553;1256;75128;-27
2024/03/27 13:02:45;;;;;;;6.00;1.20;;;;;;;16.99;31.13;98154.14;105305;1257;75471;-27
2024/03/27 13:05:13;;;;;;;1.70;1.40;;;;;;;17.19;31.02;98154.38;105373;1264;75685;-26
2024/03/27 13:07:41;;;;;;;1.50;1.10;;;;;;;17.23;30.78;98148.09;105350;1257;61139;-27
2024/03/27 13:10:10;;;;;;;2.30;1.10;;;;;;;17.34;31.16;98135.58;105585;1256;61539;-27
2024/03/27 13:12:38;;;;;;;1.60;1.10;;;;;;;16.89;30.88;98128.52;105278;1256;76069;-27
2024/03/27 13:15:06;;;;;;;2.50;1.40;;;;;;;16.85;31.16;98133.01;105337;1265;76763;-27
2024/03/27 13:17:34;;;;;;;2.90;1.30;;;;;;;16.79;31.07;98132.15;105202;1258;75367;-27
2024/03/27 13:20:05;;;;;;;1.30;0.90;;;;;;;16.84;31.62;98130.98;105399;1257;61139;-27
2024/03/27 13:22:33;;;;;;;1.60;1.50;;;;;;;16.98;31.05;98123.63;105477;1262;63853;-27
2024/03/27 13:25:01;;;;;;;3.70;1.30;;;;;;;16.81;30.58;98122.33;105372;1263;76623;-27
2024/03/27 13:27:28;;;;;;;2.20;0.90;;;;;;;16.62;31.38;98129.31;105358;1270;76067;-27
2024/03/27 13:29:57;;;;;;;1.30;1.00;;;;;;;16.67;31.05;98120.34;105049;1259;76735;-27
2024/03/27 13:32:29;;;;;;;2.90;1.50;;;;;;;16.87;31.14;98126.50;105302;1257;61158;-27
2024/03/27 13:34:57;;;;;;;2.00;1.20;;;;;;;16.86;30.82;98131.84;105577;1258;61820;-27
2024/03/27 13:37:25;;;;;;;1.80;1.10;;;;;;;17.08;30.69;98131.54;105324;1267;76696;-27
2024/03/27 13:39:55;;;;;;;3.90;1.20;;;;;;;16.82;29.96;98124.77;105543;1260;77311;-27
2024/03/27 13:42:23;;;;;;;1.30;0.90;;;;;;;16.99;31.05;98136.30;105358;1256;74096;-27
2024/03/27 13:44:51;;;;;;;2.20;1.20;;;;;;;16.84;30.28;98124.73;105416;1261;62538;-27
2024/03/27 13:47:18;;;;;;;2.00;1.30;;;;;;;16.76;30.10;98124.80;105557;1256;62977;-27
2024/03/27 13:49:46;;;;;;;3.40;1.80;;;;;;;16.83;29.90;98125.02;105520;1262;75635;-27
2024/03/27 13:52:14;;;;;;;1.70;1.30;;;;;;;16.84;29.89;98130.89;105469;1260;77577;-28
2024/03/27 13:54:41;;;;;;;2.10;1.00;;;;;;;16.68;29.48;98122.13;105350;1259;74569;-27
2024/03/27 13:57:09;;;;;;;3.10;1.30;;;;;;;16.83;30.26;98135.90;105531;1257;63418;-27
2024/03/27 13:59:37;;;;;;;1.50;1.20;;;;;;;16.64;30.31;98131.67;105428;1257;61627;-27
2024/03/27 14:02:05;;;;;;;4.10;1.30;;;;;;;16.58;30.61;98131.73;105557;1262;75414;-27
2024/03/27 14:04:32;;;;;;;2.40;1.80;;;;;;;16.44;30.46;98126.61;105389;1265;76600;-27
2024/03/27 14:07:02;;;;;;;2.20;1.40;;;;;;;16.40;29.57;98127.86;105493;1257;74325;-27